Sweeney Granite Mountains, California Weather observations

Data are for 10 minute period ending at time listed.
 Day   Time   Solar   Ave.   Ave.  Ave.  Vector  Max.   Baro.   Total    
  of    of     Rad.   Air    Rel.  Wind   Wind   Wind  Press.  Precip.   
Year   Day            Temp.  Hum.  Speed  Dir.   Gust                    
2014   (PST)  Kw/m2    F      %     mph   deg.    mph    mb.     in.     
-------------------------------------------------------------------------
 328   13:10   0.54   54.2    14   14.1   303    27.8   877.8    0.00 
 328   13:20   0.53   54.3    14    9.6   304    21.0   877.9    0.00 
 328   13:30   0.51   55.0    14    4.8   315    15.4   878.0    0.00 
 328   13:40   0.45   54.5    14    6.9   332    15.9   878.0    0.00 
 328   13:50   0.48   54.5    14    5.8   308    19.3   877.9    0.00 
 328   14:00   0.46   55.1    13    5.0     8    14.5   877.8    0.00 
 328   14:10   0.36   55.1    13    7.2   320    18.5   877.8    0.00 
 328   14:20   0.32   54.2    14    9.8   310    21.2   877.7    0.00 
 328   14:30   0.30   53.9    14   11.2   314    21.6   877.7    0.00 
 328   14:40   0.32   53.9    14   11.8   310    21.0   877.7    0.00 
 328   14:50   0.32   54.4    14   11.7   308    18.4   877.5    0.00 
 328   15:00   0.27   54.4    14   10.6   321    19.0   877.5    0.00 
 328   15:10   0.26   54.1    14   10.5   320    19.4   877.6    0.00 
 328   15:20   0.20   53.1    14   13.1   309    22.8   877.6    0.00 
 328   15:30   0.04   52.5    15   13.2   316    21.5   877.7    0.00 
 328   15:40   0.03   52.2    15   12.2   309    22.6   877.6    0.00 
 328   15:50   0.02   51.8    16   14.2   305    23.6   877.7    0.00 
 328   16:00   0.02   51.5    16   14.1   301    22.3   877.8    0.00 
 328   16:10   0.03   51.3    16   12.4   300    22.7   877.9    0.00 
 328   16:20   0.02   51.2    16    8.4   299    18.9   878.0    0.00 
 328   16:30   0.01   51.3    16    6.4   302    15.9   878.2    0.00 
 328   16:40   0.00   51.1    16    9.4   310    20.9   878.3    0.00 
 328   16:50   0.00   50.8    16    5.2   326    11.0   878.5    0.00 
 328   17:00   0.00   50.7    16    7.9   318    15.0   878.5    0.00 
 328   17:10   0.00   50.8    16    7.3   322    15.0   878.5    0.00 
 328   17:20   0.00   50.7    16    4.7   335    13.3   878.6    0.00 
 328   17:30   0.00   50.4    16    9.9   313    18.0   878.6    0.00 
 328   17:40   0.00   50.4    16    8.3   319    15.5   878.9    0.00 
 328   17:50   0.00   50.1    17   10.3   316    18.3   878.9    0.00 
 328   18:00   0.00   50.2    17   10.3   318    19.6   878.9    0.00 
 328   18:10   0.00   50.1    17   11.9   316    21.2   878.8    0.00 
 328   18:20   0.00   49.9    17   14.3   299    24.0   878.8    0.00 
 328   18:30   0.00   50.0    17   15.6   305    25.9   879.0    0.00 
 328   18:40   0.00   49.8    17   16.3   303    21.0   879.0    0.00 
 328   18:50   0.00   49.9    17   17.0   307    26.4   879.0    0.00 
 328   19:00   0.00   50.3    16   15.8   309    25.6   879.1    0.00 
 328   19:10   0.00   50.2    17   11.2   313    21.8   879.2    0.00 
 328   19:20   0.00   50.3    16   11.9   309    23.3   879.4    0.00 
 328   19:30   0.00   50.3    16    9.9   330    17.6   879.5    0.00 
 328   19:40   0.00   50.2    16    9.8   321    20.5   879.5    0.00 
 328   19:50   0.00   50.5    16   10.6   326    15.6   879.8    0.00 
 328   20:00   0.00   50.4    15   11.5   316    15.5   879.9    0.00 
 328   20:10   0.00   51.0    14   12.3   316    17.2   880.0    0.00 
 328   20:20   0.00   51.3    14   12.8   308    17.6   880.1    0.00 
 328   20:30   0.00   51.2    14   11.2   311    17.4   880.2    0.00 
 328   20:40   0.00   51.1    14    9.7   311    16.6   880.3    0.00 
 328   20:50   0.00   51.2    14    8.8   319    13.3   880.4    0.00 
 328   21:00   0.00   50.9    14   11.4   311    17.6   880.4    0.00 
 328   21:10   0.00   50.6    14   12.3   307    18.3   880.6    0.00 
 328   21:20   0.00   50.5    14   11.4   309    18.9   880.7    0.00 
 328   21:30   0.00   50.9    14   12.0   315    18.0   880.7    0.00 
 328   21:40   0.00   50.7    14   11.9   313    19.1   880.6    0.00 
 328   21:50   0.00   50.5    14   10.3   315    16.4   880.7    0.00 
 328   22:00   0.00   50.3    14    9.3   312    14.2   880.6    0.00 
 328   22:10   0.00   50.3    14   10.2   314    19.2   880.6    0.00 
 328   22:20   0.00   50.3    14   10.8   308    15.9   880.7    0.00 
 328   22:30   0.00   50.2    14   11.6   308    17.7   880.6    0.00 
 328   22:40   0.00   50.0    14   10.2   298    19.4   880.7    0.00 
 328   22:50   0.00   50.0    14   12.3   297    18.9   880.6    0.00 
 328   23:00   0.00   49.9    14    8.4   293    14.6   880.9    0.00 
 328   23:10   0.00   49.4    14   10.3   295    14.8   880.9    0.00 
 328   23:20   0.00   49.8    14    7.1   319    11.5   880.9    0.00 
 328   23:30   0.00   50.2    14    8.1   329    12.2   881.0    0.00 
 328   23:40   0.00   50.1    14    6.9   323    12.4   881.0    0.00 
 328   23:50   0.00   49.2    14    9.0   312    12.9   881.1    0.00 
 329    0:00   0.00   48.7    15    8.5   300    14.0   881.2    0.00 
 329    0:10   0.00   48.8    15    9.6   304    14.9   881.3    0.00 
 329    0:20   0.00   48.7    15    8.8   310    14.9   881.3    0.00 
 329    0:30   0.00   49.0    15    9.1   301    13.0   881.5    0.00 
 329    0:40   0.00   48.5    15    9.1   309    13.0   881.5    0.00 
 329    0:50   0.00   48.8    15    7.9   294    12.4   881.6    0.00 
 329    1:00   0.00   48.6    15    7.6   293    11.4   881.6    0.00 
 329    1:10   0.00   48.9    14    6.0   288    10.8   881.6    0.00 
 329    1:20   0.00   48.3    15    4.6   282    10.3   881.6    0.00 
 329    1:30   0.00   47.1    16    4.6   284     7.5   881.5    0.00 
 329    1:40   0.00   47.7    15    2.8   297     5.0   881.6    0.00 
 329    1:50   0.00   47.5    15    3.5   306     7.7   881.6    0.00 
 329    2:00   0.00   47.6    15    1.8   250     5.0   881.6    0.00 
 329    2:10   0.00   47.3    15    1.6   284     4.2   881.6    0.00 
 329    2:20   0.00   46.1    15    2.8   305     4.2   881.5    0.00 
 329    2:30   0.00   43.6    17    3.1   274     4.4   881.4    0.00 
 329    2:40   0.00   43.0    17    1.7   300     3.4   881.4    0.00 
 329    2:50   0.00   43.4    17    3.8   278     6.1   881.4    0.00 
 329    3:00   0.00   43.7    17    4.2   254     7.0   881.4    0.00 
 329    3:10   0.00   44.5    17    3.1   285     5.2   881.4    0.00 
 329    3:20   0.00   45.4    16    3.4   289     8.0   881.4    0.00 
 329    3:30   0.00   43.9    17    4.8   260     8.8   881.4    0.00 
 329    3:40   0.00   45.0    16    3.0    11     4.7   881.3    0.00 
 329    3:50   0.00   44.7    17    2.5   202     5.3   881.4    0.00 
 329    4:00   0.00   43.8    17    3.5   298     6.4   881.5    0.00 
 329    4:10   0.00   42.8    18    4.1   298     5.9   881.4    0.00 
 329    4:20   0.00   43.4    17    3.0   259     5.8   881.4    0.00 
 329    4:30   0.00   43.6    17    2.2   344     4.2   881.5    0.00 
 329    4:40   0.00   45.0    15    4.6   289     9.6   881.4    0.00 
 329    4:50   0.00   46.4    15    1.7   279     6.8   881.5    0.00 
 329    5:00   0.00   45.0    15    1.9   295     3.7   881.4    0.00 
 329    5:10   0.00   45.5    15    0.9   189     3.1   881.5    0.00 
 329    5:20   0.00   45.1    15    1.8   262     5.0   881.6    0.00 
 329    5:30   0.00   44.7    16    3.9   293     7.8   881.5    0.00 
 329    5:40   0.00   46.3    16    6.5   300    10.2   881.4    0.00 
 329    5:50   0.00   47.2    15    6.1   276     8.3   881.5    0.00 
 329    6:00   0.00   47.5    14    4.0   281     7.7   881.6    0.00 
 329    6:10   0.00   46.5    15    4.4   288     7.1   881.6    0.00 
 329    6:20   0.00   44.7    16    2.5   312     6.1   881.6    0.00 
 329    6:30   0.00   45.0    15    1.5    43     2.9   881.8    0.00 
 329    6:40   0.00   42.5    16    1.1   164     2.8   881.9    0.00 
 329    6:50   0.02   41.1    17    1.9   283     5.3   882.1    0.00 
 329    7:00   0.04   42.8    16    2.4   285     3.8   882.2    0.00 
 329    7:10   0.08   43.5    16    1.8   269     4.2   882.2    0.00 
 329    7:20   0.10   48.4    14    1.3   330     2.8   882.3    0.00 
 329    7:30   0.14   50.8    13    2.1   310     3.5   882.4    0.00 
 329    7:40   0.17   54.0    11    0.9   186     3.3   882.6    0.00 
 329    7:50   0.20   54.3    12    2.8   133     4.8   882.6    0.00 
 329    8:00   0.23   55.3    12    1.7   130     3.2   882.6    0.00 
 329    8:10   0.26   57.4    11    1.2   138     2.9   882.5    0.00 
 329    8:20   0.29   58.1    11    1.6   136     3.7   882.6    0.00 
 329    8:30   0.32   57.0    11    2.0   101     4.1   882.6    0.00 
 329    8:40   0.35   58.2    11    1.6   104     3.2   882.5    0.00 
 329    8:50   0.38   58.1    11    2.3   110     4.2   882.4    0.00 
 329    9:00   0.40   58.0    11    2.6   102     5.0   882.3    0.00 
 329    9:10   0.43   58.8    11    2.9   102     6.0   882.4    0.00 
 329    9:20   0.45   58.1    11    2.6   124     4.3   882.4    0.00 
 329    9:30   0.47   57.4    12    5.3   114    11.9   882.3    0.00 
 329    9:40   0.50   58.0    12    2.3   196     7.4   882.4    0.00 
 329    9:50   0.52   58.9    11    2.2   186     6.1   882.4    0.00 
 329   10:00   0.53   58.7    12    2.8   100     8.3   882.4    0.00 
 329   10:10   0.55   57.5    12    2.9   171     6.9   882.3    0.00 
 329   10:20   0.56   57.8    12    2.7   134     6.9   882.3    0.00 
 329   10:30   0.58   57.7    12    3.2    54     6.9   882.2    0.00 
 329   10:40   0.59   57.9    12    2.6    77     6.1   882.2    0.00 
 329   10:50   0.60   58.5    12    2.7    28     6.5   882.0    0.00 
 329   11:00   0.60   59.3    11    3.5   224     8.5   882.0    0.00 
 329   11:10   0.61   59.9    11    2.5   122     6.8   881.8    0.00 
 329   11:20   0.62   59.4    11    2.0    68     4.3   881.5    0.00 
 329   11:30   0.62   60.2    11    2.6   145     7.1   881.3    0.00 
 329   11:40   0.62   58.4    12    4.3    92     9.9   881.0    0.00 
 329   11:50   0.62   57.4    12    5.0   104    11.8   880.9    0.00 
 329   12:00   0.62   58.4    12    2.8    93     8.3   880.7    0.00 
 329   12:10   0.61   60.1    11    2.3   159     4.2   880.7    0.00 
 329   12:20   0.60   60.3    11    3.8   124     7.9   880.7    0.00 
 329   12:30   0.59   59.8    11    3.9   122     8.3   880.6    0.00 
 329   12:40   0.58   59.6    11    5.3   125    10.4   880.5    0.00 
 329   12:50   0.55   59.5    11    2.9   219     5.9   880.5    0.00 
 329   13:00   0.54   60.4    11    3.9   241     8.7   880.3    0.00 

Return to Sweeney Granite Mountains graphs page.


Western Regional Climate Center,wrcc@dri.edu